This is the latest recevied weather packets stored in our database for station/object OK5TVR-5. If no packets are shown the sender has not sent any weather packets the latest 1 day(s).
| Time | Temp. | Humidity | Pressure | Rain* | Wind** | Luminosity | Snow |
|---|---|---|---|---|---|---|---|
| 1778003212 | 16.67° C | - | - | - | 4.47 m/s, 222° | - | - |
| 1778003211 | 16.67° C | 90% | - | - | 4.47 m/s, 222° | - | - |
| 1778003211 | 16.67° C | 90% | - | - | 4.47 m/s, 222° | - | - |
| 1778002311 | 17.78° C | 85% | - | - | 0.89 m/s, 270° | - | - |
| 1778002311 | 17.78° C | 85% | - | - | 0.89 m/s, 270° | - | - |
| 1778001410 | 20° C | 63% | - | - | 4.02 m/s, 45° | - | - |
| 1778000511 | 20.56° C | 60% | - | - | 4.92 m/s, 315° | - | - |
| 1778000511 | 20.56° C | 60% | - | - | 4.92 m/s, 315° | - | - |
| 1777999608 | 20.56° C | 61% | - | - | 3.58 m/s, 0° | - | - |
| 1777999608 | 20.56° C | 61% | - | - | 3.58 m/s, 0° | - | - |
| 1777999608 | 20.56° C | 61% | - | - | 3.58 m/s, 0° | - | - |
| 1777998708 | 20.56° C | 59% | - | - | 4.92 m/s, 315° | - | - |
| 1777998708 | 20.56° C | 59% | - | - | 4.92 m/s, 315° | - | - |
| 1777997808 | 21.11° C | 58% | - | - | 4.47 m/s, 0° | - | - |
| 1777997808 | 21.11° C | 58% | - | - | 4.47 m/s, 0° | - | - |
| 1777996907 | 21.67° C | 54% | - | - | 4.47 m/s, 270° | - | - |
| 1777996005 | 22.22° C | 52% | - | - | 4.47 m/s, 222° | - | - |
| 1777996005 | 22.22° C | 52% | - | - | 4.47 m/s, 222° | - | - |
| 1777996005 | 22.22° C | - | - | - | 4.47 m/s, 222° | - | - |
| 1777995103 | 23.89° C | 42% | - | - | 2.68 m/s, 270° | - | - |
| 1777995103 | 23.89° C | 42% | - | - | 2.68 m/s, 270° | - | - |
| 1777994201 | 24.44° C | 41% | - | - | 2.68 m/s, 90° | - | - |
| 1777994201 | 24.44° C | 41% | - | - | 2.68 m/s, 90° | - | - |
| 1777993301 | 26.11° C | 36% | - | - | 1.79 m/s, 90° | - | - |
| 1777993301 | 26.11° C | 36% | - | - | 1.79 m/s, 90° | - | - |
* Rain since midnight (hover to see other rain measurements)
** Current wind speed in m/s (hover to see current wind gust speed)